createdAt,value
2023-05-10T00:02:22.253Z,0.47
2023-05-10T00:07:46.021Z,1.50
2023-05-10T00:13:07.886Z,3.30
2023-05-10T00:18:29.847Z,1.23
2023-05-10T00:23:51.697Z,0.63
2023-05-10T00:29:13.434Z,0.75
2023-05-10T00:34:35.177Z,4.88
2023-05-10T00:39:57.008Z,1.10
2023-05-10T00:45:18.932Z,0.45
2023-05-10T00:50:41.322Z,0.95
2023-05-10T00:56:04.807Z,4.90
2023-05-10T01:01:26.655Z,2.03
2023-05-10T01:06:48.495Z,0.40
2023-05-10T01:12:10.547Z,0.55
2023-05-10T01:17:32.705Z,1.88
2023-05-10T01:23:32.086Z,0.85
2023-05-10T01:29:09.077Z,1.65
2023-05-10T01:34:39.155Z,0.57
2023-05-10T01:40:19.951Z,1.52
2023-05-10T01:45:50.868Z,0.70
2023-05-10T01:51:14.080Z,3.80
2023-05-10T01:56:41.442Z,1.00
2023-05-10T02:02:06.003Z,2.72
2023-05-10T02:07:29.779Z,1.38
2023-05-10T02:12:54.741Z,1.35
2023-05-10T02:18:18.147Z,1.90
2023-05-10T02:23:40.929Z,0.60
2023-05-10T02:29:07.969Z,1.65
2023-05-10T02:34:31.144Z,0.80
2023-05-10T02:39:56.405Z,0.85
2023-05-10T02:45:21.916Z,0.70
2023-05-10T02:56:15.801Z,0.98
2023-05-10T03:01:37.685Z,0.65
2023-05-10T03:07:00.169Z,1.27
2023-05-10T03:12:55.147Z,0.68
2023-05-10T03:18:37.679Z,0.57
2023-05-10T03:24:10.265Z,2.08
2023-05-10T03:29:33.210Z,1.30
2023-05-10T03:34:55.062Z,0.50
2023-05-10T03:40:17.404Z,1.48
2023-05-10T03:45:39.403Z,1.23
2023-05-10T03:51:01.351Z,0.77
2023-05-10T03:56:23.266Z,0.73
2023-05-10T04:01:45.089Z,1.05
2023-05-10T04:07:06.867Z,1.77
2023-05-10T04:12:28.642Z,1.58
2023-05-10T04:17:51.611Z,3.33
2023-05-10T04:23:15.259Z,2.60
2023-05-10T04:28:37.143Z,3.33
2023-05-10T04:33:58.931Z,2.38
2023-05-10T04:39:20.746Z,2.85
2023-05-10T04:44:42.636Z,2.60
2023-05-10T04:50:07.711Z,1.58
2023-05-10T04:55:29.538Z,2.00
2023-05-10T05:00:51.340Z,1.83
2023-05-10T05:06:13.098Z,3.75
2023-05-10T05:11:34.913Z,1.48
2023-05-10T05:16:57.099Z,1.83
2023-05-10T05:22:20.586Z,1.58
2023-05-10T05:27:43.182Z,8.48
2023-05-10T05:33:05.399Z,17.70
2023-05-10T05:38:27.388Z,23.50
2023-05-10T05:43:49.210Z,21.45
2023-05-10T05:49:11.236Z,20.92
2023-05-10T05:54:34.038Z,20.73
2023-05-10T05:59:56.016Z,13.30
2023-05-10T06:05:18.232Z,24.30
2023-05-10T06:10:40.250Z,26.30
2023-05-10T06:16:03.672Z,31.92
2023-05-10T06:21:25.715Z,27.52
2023-05-10T06:26:47.586Z,24.73
2023-05-10T06:32:09.400Z,20.10
2023-05-10T06:37:31.180Z,16.67
2023-05-10T06:42:53.012Z,16.73
2023-05-10T06:48:14.897Z,15.82
2023-05-10T06:53:36.918Z,20.88
2023-05-10T06:58:59.032Z,24.60
2023-05-10T07:04:20.922Z,17.58
2023-05-10T07:09:43.319Z,18.20
2023-05-10T07:15:06.152Z,14.95
2023-05-10T07:20:27.997Z,20.90
2023-05-10T07:25:51.061Z,11.85
2023-05-10T07:31:12.832Z,10.98
2023-05-10T07:36:34.697Z,13.18
2023-05-10T07:41:57.013Z,14.27
2023-05-10T07:47:18.830Z,10.07
2023-05-10T07:52:40.876Z,14.30
2023-05-10T07:58:02.776Z,6.68
2023-05-10T08:03:24.644Z,8.07
2023-05-10T08:08:51.699Z,11.93
2023-05-10T08:14:13.640Z,13.18
2023-05-10T08:19:35.528Z,11.25
2023-05-10T08:24:57.319Z,8.73
2023-05-10T08:30:19.328Z,8.88
2023-05-10T08:35:41.224Z,13.32
2023-05-10T08:41:04.357Z,13.60
2023-05-10T08:46:28.781Z,9.25
2023-05-10T08:51:56.426Z,8.60
2023-05-10T08:57:18.821Z,8.80
2023-05-10T09:02:41.500Z,7.32
2023-05-10T09:08:03.390Z,8.27
2023-05-10T09:13:26.217Z,10.82
2023-05-10T09:18:48.197Z,7.22
2023-05-10T09:24:10.432Z,5.25
2023-05-10T09:29:43.300Z,7.75
2023-05-10T09:35:12.460Z,6.07
2023-05-10T09:40:35.048Z,5.82
2023-05-10T09:45:57.048Z,6.25
2023-05-10T09:51:22.968Z,5.85
2023-05-10T09:56:44.936Z,4.20
2023-05-10T10:02:07.753Z,7.22
2023-05-10T10:07:30.366Z,5.75
2023-05-10T10:12:52.892Z,4.90
2023-05-10T10:18:16.750Z,4.72
2023-05-10T10:23:38.764Z,4.15
2023-05-10T10:29:12.569Z,9.65
2023-05-10T10:34:34.917Z,11.60
2023-05-10T10:39:56.846Z,10.85
2023-05-10T10:45:19.055Z,14.82
2023-05-10T10:50:47.928Z,15.10
2023-05-10T10:56:12.739Z,13.82
2023-05-10T11:01:38.541Z,12.57
2023-05-10T11:07:18.742Z,10.75
2023-05-10T11:13:02.076Z,8.15
2023-05-10T11:18:28.771Z,11.50
2023-05-10T11:23:53.273Z,6.63
2023-05-10T11:29:15.138Z,10.45
2023-05-10T11:34:36.998Z,4.82
2023-05-10T11:39:58.898Z,9.23
2023-05-10T11:45:20.835Z,12.38
2023-05-10T11:50:42.691Z,10.23
2023-05-10T11:56:08.672Z,6.80
2023-05-10T12:01:30.778Z,8.88
2023-05-10T12:06:52.617Z,7.18
2023-05-10T12:12:18.573Z,7.40
2023-05-10T12:17:43.458Z,4.57
2023-05-10T12:23:06.743Z,5.20
2023-05-10T12:28:31.964Z,4.63
2023-05-10T12:33:53.739Z,6.93
2023-05-10T12:39:15.663Z,4.25
2023-05-10T12:44:37.540Z,5.38
2023-05-10T12:50:02.351Z,3.65
2023-05-10T12:55:24.184Z,5.97
2023-05-10T13:00:46.208Z,3.42
2023-05-10T13:06:08.045Z,4.30
2023-05-10T13:11:29.920Z,2.70
2023-05-10T13:16:51.781Z,2.75
2023-05-10T13:22:13.592Z,3.78
2023-05-10T13:27:35.482Z,3.95
2023-05-10T13:32:57.351Z,2.25
2023-05-10T13:38:21.727Z,4.38
2023-05-10T13:43:44.314Z,4.35
2023-05-10T13:49:06.284Z,4.90
2023-05-10T13:54:30.685Z,3.97
2023-05-10T13:59:54.772Z,2.95
2023-05-10T14:05:19.994Z,3.60
2023-05-10T14:10:46.114Z,1.52
2023-05-10T14:16:08.041Z,2.63
2023-05-10T14:21:33.034Z,2.60
2023-05-10T14:26:55.276Z,4.68
2023-05-10T14:32:17.134Z,3.80
2023-05-10T14:37:38.974Z,3.58
2023-05-10T14:43:00.919Z,1.13
2023-05-10T14:48:22.778Z,2.78
2023-05-10T14:53:44.539Z,1.02
2023-05-10T14:59:06.376Z,2.45
2023-05-10T15:04:29.025Z,1.67
2023-05-10T15:09:53.117Z,3.67
2023-05-10T15:15:15.233Z,1.88
2023-05-10T15:20:37.235Z,5.07
2023-05-10T15:25:58.968Z,4.95
2023-05-10T15:31:20.889Z,2.88
2023-05-10T15:36:43.097Z,2.33
2023-05-10T15:42:05.356Z,2.05
2023-05-10T15:47:28.945Z,2.03
2023-05-10T15:52:50.750Z,2.55
2023-05-10T15:58:12.558Z,2.33
2023-05-10T16:03:37.278Z,3.92
2023-05-10T16:08:59.436Z,3.17
2023-05-10T16:14:24.951Z,2.55
2023-05-10T16:25:11.523Z,4.38
2023-05-10T16:30:34.570Z,4.57
2023-05-10T16:35:56.597Z,1.95
2023-05-10T16:41:18.378Z,2.60
2023-05-10T16:46:40.980Z,1.65
2023-05-10T16:52:03.540Z,3.45
2023-05-10T16:57:25.939Z,4.32
2023-05-10T17:02:47.917Z,1.08
2023-05-10T17:08:10.472Z,1.48
2023-05-10T17:13:32.410Z,2.22
2023-05-10T17:18:54.284Z,1.45
2023-05-10T17:24:16.200Z,1.10
2023-05-10T17:29:37.990Z,1.20
2023-05-10T17:34:59.795Z,0.88
2023-05-10T17:40:21.945Z,0.45
2023-05-10T17:45:45.068Z,2.55
2023-05-10T17:51:06.973Z,0.80
2023-05-10T17:56:29.153Z,0.50
2023-05-10T18:01:50.983Z,0.90
2023-05-10T18:07:12.904Z,0.40
2023-05-10T18:12:34.658Z,1.20
2023-05-10T18:17:57.036Z,1.50
2023-05-10T18:23:18.940Z,1.75
2023-05-10T18:28:40.771Z,3.90
2023-05-10T18:34:02.653Z,3.30
2023-05-10T18:39:25.207Z,4.93
2023-05-10T18:44:47.025Z,4.13
2023-05-10T18:50:09.109Z,2.85
2023-05-10T18:55:31.026Z,7.95
2023-05-10T19:00:53.788Z,3.88
2023-05-10T19:06:15.621Z,1.73
2023-05-10T19:11:37.495Z,2.90
2023-05-10T19:16:59.340Z,3.28
2023-05-10T19:22:35.300Z,2.63
2023-05-10T19:28:03.807Z,6.47
2023-05-10T19:33:25.768Z,2.30
2023-05-10T19:38:47.692Z,4.53
2023-05-10T19:44:09.538Z,8.85
2023-05-10T19:49:31.659Z,10.10
2023-05-10T19:54:53.542Z,3.88
2023-05-10T20:00:15.626Z,6.97
2023-05-10T20:05:37.432Z,6.80
2023-05-10T20:11:00.911Z,2.95
2023-05-10T20:16:25.076Z,5.55
2023-05-10T20:21:48.330Z,8.30
2023-05-10T20:27:10.152Z,5.85
2023-05-10T20:32:32.559Z,6.85
2023-05-10T20:37:54.962Z,4.75
2023-05-10T20:43:17.315Z,5.18
2023-05-10T20:48:39.181Z,5.13
2023-05-10T20:54:04.660Z,6.35
2023-05-10T21:04:48.111Z,7.50
2023-05-10T21:10:11.906Z,5.15
2023-05-10T21:15:33.756Z,2.63
2023-05-10T21:20:55.535Z,3.08
2023-05-10T21:26:17.507Z,6.20
2023-05-10T21:31:39.304Z,4.80
2023-05-10T21:37:01.709Z,4.50
2023-05-10T21:42:23.672Z,4.05
2023-05-10T21:47:45.925Z,2.28
2023-05-10T21:53:07.755Z,2.90
2023-05-10T21:58:29.496Z,4.18
2023-05-10T22:03:51.262Z,4.53
2023-05-10T22:09:13.077Z,1.95
2023-05-10T22:14:35.050Z,3.80
2023-05-10T22:19:57.000Z,2.00
2023-05-10T22:25:18.848Z,2.60
2023-05-10T22:30:42.504Z,1.52
2023-05-10T22:36:05.428Z,1.90
2023-05-10T22:41:27.219Z,6.05
2023-05-10T22:46:49.103Z,9.07
2023-05-10T22:52:11.147Z,7.85
2023-05-10T22:57:33.709Z,8.10
2023-05-10T23:02:55.605Z,8.15
2023-05-10T23:08:17.438Z,7.00
2023-05-10T23:13:39.181Z,8.45
2023-05-10T23:19:01.040Z,6.03
2023-05-10T23:24:23.154Z,8.27
2023-05-10T23:29:44.948Z,6.05
2023-05-10T23:35:07.309Z,7.75
2023-05-10T23:40:29.137Z,3.17
2023-05-10T23:45:58.141Z,4.80
2023-05-10T23:51:20.126Z,6.05
2023-05-10T23:56:41.933Z,3.20
